sensor_id;sensor_type;location;lat;lon;timestamp;P1;durP1;ratioP1;P2;durP2;ratioP2
553;SDS011;59;48.778;9.156;2023-05-14T00:01:18;8.70;;;6.87;;
553;SDS011;59;48.778;9.156;2023-05-14T00:03:44;7.70;;;7.10;;
553;SDS011;59;48.778;9.156;2023-05-14T00:06:10;9.03;;;7.90;;
553;SDS011;59;48.778;9.156;2023-05-14T00:08:35;9.40;;;7.90;;
553;SDS011;59;48.778;9.156;2023-05-14T00:11:01;8.30;;;7.37;;
553;SDS011;59;48.778;9.156;2023-05-14T00:13:27;7.97;;;7.20;;
553;SDS011;59;48.778;9.156;2023-05-14T00:15:52;9.23;;;8.10;;
553;SDS011;59;48.778;9.156;2023-05-14T00:18:18;9.27;;;8.30;;
553;SDS011;59;48.778;9.156;2023-05-14T00:20:44;8.73;;;7.57;;
553;SDS011;59;48.778;9.156;2023-05-14T00:23:10;8.30;;;7.53;;
553;SDS011;59;48.778;9.156;2023-05-14T00:25:35;8.40;;;7.00;;
553;SDS011;59;48.778;9.156;2023-05-14T00:28:02;9.13;;;7.40;;
553;SDS011;59;48.778;9.156;2023-05-14T00:30:28;8.57;;;7.77;;
553;SDS011;59;48.778;9.156;2023-05-14T00:32:53;7.53;;;7.13;;
553;SDS011;59;48.778;9.156;2023-05-14T00:35:19;8.70;;;7.73;;
553;SDS011;59;48.778;9.156;2023-05-14T00:37:45;7.80;;;7.10;;
553;SDS011;59;48.778;9.156;2023-05-14T00:40:11;8.53;;;7.73;;
553;SDS011;59;48.778;9.156;2023-05-14T00:42:38;8.97;;;7.70;;
553;SDS011;59;48.778;9.156;2023-05-14T00:45:04;9.07;;;7.73;;
553;SDS011;59;48.778;9.156;2023-05-14T00:47:31;7.90;;;7.30;;
553;SDS011;59;48.778;9.156;2023-05-14T00:49:58;10.57;;;8.47;;
553;SDS011;59;48.778;9.156;2023-05-14T00:52:24;7.90;;;7.50;;
553;SDS011;59;48.778;9.156;2023-05-14T00:54:50;8.00;;;7.50;;
553;SDS011;59;48.778;9.156;2023-05-14T00:57:16;9.90;;;8.43;;
553;SDS011;59;48.778;9.156;2023-05-14T00:59:43;9.03;;;8.40;;
553;SDS011;59;48.778;9.156;2023-05-14T01:02:09;9.63;;;7.83;;
553;SDS011;59;48.778;9.156;2023-05-14T01:04:35;8.67;;;7.87;;
553;SDS011;59;48.778;9.156;2023-05-14T01:09:40;9.33;;;8.20;;
553;SDS011;59;48.778;9.156;2023-05-14T01:12:20;9.30;;;8.43;;
553;SDS011;59;48.778;9.156;2023-05-14T01:15:11;8.43;;;7.80;;
553;SDS011;59;48.778;9.156;2023-05-14T01:17:42;11.67;;;8.50;;
553;SDS011;59;48.778;9.156;2023-05-14T01:20:10;13.90;;;9.47;;
553;SDS011;59;48.778;9.156;2023-05-14T01:22:36;9.00;;;7.93;;
553;SDS011;59;48.778;9.156;2023-05-14T01:25:03;10.60;;;8.80;;
553;SDS011;59;48.778;9.156;2023-05-14T01:32:50;9.70;;;8.70;;
553;SDS011;59;48.778;9.156;2023-05-14T01:35:18;10.07;;;9.40;;
553;SDS011;59;48.778;9.156;2023-05-14T01:37:45;11.30;;;9.83;;
553;SDS011;59;48.778;9.156;2023-05-14T01:40:11;10.30;;;8.97;;
553;SDS011;59;48.778;9.156;2023-05-14T01:42:38;10.50;;;9.10;;
553;SDS011;59;48.778;9.156;2023-05-14T01:45:04;11.13;;;9.70;;
553;SDS011;59;48.778;9.156;2023-05-14T01:47:30;10.63;;;9.03;;
553;SDS011;59;48.778;9.156;2023-05-14T01:49:55;14.00;;;11.10;;
553;SDS011;59;48.778;9.156;2023-05-14T01:52:21;13.27;;;10.60;;
553;SDS011;59;48.778;9.156;2023-05-14T01:54:47;12.30;;;9.83;;
553;SDS011;59;48.778;9.156;2023-05-14T01:57:12;10.90;;;9.93;;
553;SDS011;59;48.778;9.156;2023-05-14T01:59:38;11.33;;;9.30;;
553;SDS011;59;48.778;9.156;2023-05-14T02:02:04;10.30;;;8.73;;
553;SDS011;59;48.778;9.156;2023-05-14T02:04:29;9.10;;;8.50;;
553;SDS011;59;48.778;9.156;2023-05-14T02:06:55;9.83;;;8.70;;
553;SDS011;59;48.778;9.156;2023-05-14T02:09:21;11.10;;;9.87;;
553;SDS011;59;48.778;9.156;2023-05-14T02:11:46;12.23;;;10.40;;
553;SDS011;59;48.778;9.156;2023-05-14T02:14:12;9.40;;;8.80;;
553;SDS011;59;48.778;9.156;2023-05-14T02:16:39;10.00;;;8.57;;
553;SDS011;59;48.778;9.156;2023-05-14T02:19:05;11.53;;;9.00;;
553;SDS011;59;48.778;9.156;2023-05-14T02:21:30;12.10;;;9.50;;
553;SDS011;59;48.778;9.156;2023-05-14T02:23:56;10.87;;;9.10;;
553;SDS011;59;48.778;9.156;2023-05-14T02:26:21;11.77;;;9.80;;
553;SDS011;59;48.778;9.156;2023-05-14T02:28:47;13.43;;;10.70;;
553;SDS011;59;48.778;9.156;2023-05-14T02:31:13;13.30;;;9.37;;
553;SDS011;59;48.778;9.156;2023-05-14T02:33:39;11.23;;;9.73;;
553;SDS011;59;48.778;9.156;2023-05-14T02:36:04;11.67;;;9.77;;
553;SDS011;59;48.778;9.156;2023-05-14T02:38:30;10.67;;;9.43;;
553;SDS011;59;48.778;9.156;2023-05-14T02:40:56;11.50;;;9.37;;
553;SDS011;59;48.778;9.156;2023-05-14T02:43:21;10.10;;;8.80;;
553;SDS011;59;48.778;9.156;2023-05-14T02:45:47;10.63;;;9.20;;
553;SDS011;59;48.778;9.156;2023-05-14T02:48:13;11.07;;;9.73;;
553;SDS011;59;48.778;9.156;2023-05-14T02:50:38;10.90;;;9.17;;
553;SDS011;59;48.778;9.156;2023-05-14T02:53:04;9.00;;;8.47;;
553;SDS011;59;48.778;9.156;2023-05-14T02:55:30;10.60;;;8.80;;
553;SDS011;59;48.778;9.156;2023-05-14T02:57:55;10.03;;;8.70;;
553;SDS011;59;48.778;9.156;2023-05-14T03:00:21;10.40;;;9.10;;
553;SDS011;59;48.778;9.156;2023-05-14T03:02:47;10.13;;;9.17;;
553;SDS011;59;48.778;9.156;2023-05-14T03:05:12;10.53;;;8.83;;
553;SDS011;59;48.778;9.156;2023-05-14T03:07:38;11.27;;;9.60;;
553;SDS011;59;48.778;9.156;2023-05-14T03:10:04;9.20;;;8.73;;
553;SDS011;59;48.778;9.156;2023-05-14T03:12:30;11.13;;;8.93;;
553;SDS011;59;48.778;9.156;2023-05-14T03:14:56;10.97;;;9.10;;
553;SDS011;59;48.778;9.156;2023-05-14T03:17:21;8.90;;;8.13;;
553;SDS011;59;48.778;9.156;2023-05-14T03:19:47;12.30;;;9.27;;
553;SDS011;59;48.778;9.156;2023-05-14T03:22:13;10.60;;;8.77;;
553;SDS011;59;48.778;9.156;2023-05-14T03:24:38;9.20;;;8.50;;
553;SDS011;59;48.778;9.156;2023-05-14T03:27:04;13.63;;;9.97;;
553;SDS011;59;48.778;9.156;2023-05-14T03:29:30;10.43;;;8.70;;
553;SDS011;59;48.778;9.156;2023-05-14T03:31:56;9.67;;;9.07;;
553;SDS011;59;48.778;9.156;2023-05-14T03:34:22;10.77;;;9.50;;
553;SDS011;59;48.778;9.156;2023-05-14T03:36:47;11.13;;;9.83;;
553;SDS011;59;48.778;9.156;2023-05-14T03:39:13;13.10;;;10.30;;
553;SDS011;59;48.778;9.156;2023-05-14T03:41:45;9.83;;;9.30;;
553;SDS011;59;48.778;9.156;2023-05-14T03:44:11;12.00;;;9.60;;
553;SDS011;59;48.778;9.156;2023-05-14T03:46:38;11.63;;;9.70;;
553;SDS011;59;48.778;9.156;2023-05-14T03:49:20;11.17;;;9.80;;
553;SDS011;59;48.778;9.156;2023-05-14T03:51:59;11.80;;;9.30;;
553;SDS011;59;48.778;9.156;2023-05-14T04:12:32;12.23;;;10.00;;
553;SDS011;59;48.778;9.156;2023-05-14T04:14:58;12.87;;;9.43;;
553;SDS011;59;48.778;9.156;2023-05-14T04:17:25;10.80;;;9.13;;
553;SDS011;59;48.778;9.156;2023-05-14T04:19:50;11.10;;;9.60;;
553;SDS011;59;48.778;9.156;2023-05-14T04:22:16;10.13;;;8.60;;
553;SDS011;59;48.778;9.156;2023-05-14T04:24:42;11.37;;;9.70;;
553;SDS011;59;48.778;9.156;2023-05-14T04:27:07;9.63;;;8.53;;
553;SDS011;59;48.778;9.156;2023-05-14T04:29:33;12.17;;;9.60;;
553;SDS011;59;48.778;9.156;2023-05-14T04:31:58;10.73;;;8.23;;
553;SDS011;59;48.778;9.156;2023-05-14T04:34:24;10.67;;;8.97;;
553;SDS011;59;48.778;9.156;2023-05-14T04:36:50;9.90;;;8.40;;
553;SDS011;59;48.778;9.156;2023-05-14T04:39:17;10.57;;;9.00;;
553;SDS011;59;48.778;9.156;2023-05-14T04:41:43;10.23;;;8.43;;
553;SDS011;59;48.778;9.156;2023-05-14T04:44:08;9.63;;;8.50;;
553;SDS011;59;48.778;9.156;2023-05-14T04:46:36;9.87;;;8.43;;
553;SDS011;59;48.778;9.156;2023-05-14T04:49:01;10.40;;;8.70;;
553;SDS011;59;48.778;9.156;2023-05-14T04:51:27;9.80;;;8.90;;
553;SDS011;59;48.778;9.156;2023-05-14T04:53:53;9.83;;;8.60;;
553;SDS011;59;48.778;9.156;2023-05-14T04:56:18;9.30;;;8.27;;
553;SDS011;59;48.778;9.156;2023-05-14T04:58:45;9.60;;;8.73;;
553;SDS011;59;48.778;9.156;2023-05-14T05:01:11;8.97;;;7.90;;
553;SDS011;59;48.778;9.156;2023-05-14T05:03:36;11.00;;;8.77;;
553;SDS011;59;48.778;9.156;2023-05-14T05:06:02;10.53;;;8.47;;
553;SDS011;59;48.778;9.156;2023-05-14T05:08:28;11.63;;;8.17;;
553;SDS011;59;48.778;9.156;2023-05-14T05:10:53;9.67;;;8.13;;
553;SDS011;59;48.778;9.156;2023-05-14T05:13:19;11.17;;;9.07;;
553;SDS011;59;48.778;9.156;2023-05-14T05:15:45;10.67;;;8.70;;
553;SDS011;59;48.778;9.156;2023-05-14T05:18:10;9.20;;;8.17;;
553;SDS011;59;48.778;9.156;2023-05-14T05:20:36;11.37;;;9.30;;
553;SDS011;59;48.778;9.156;2023-05-14T05:23:02;14.90;;;9.10;;
553;SDS011;59;48.778;9.156;2023-05-14T05:25:27;11.40;;;8.87;;
553;SDS011;59;48.778;9.156;2023-05-14T05:27:53;11.27;;;9.50;;
553;SDS011;59;48.778;9.156;2023-05-14T05:30:19;10.33;;;9.10;;
553;SDS011;59;48.778;9.156;2023-05-14T05:32:45;10.90;;;8.63;;
553;SDS011;59;48.778;9.156;2023-05-14T05:35:10;11.43;;;9.10;;
553;SDS011;59;48.778;9.156;2023-05-14T05:37:36;12.53;;;11.07;;
553;SDS011;59;48.778;9.156;2023-05-14T05:40:02;11.73;;;9.83;;
553;SDS011;59;48.778;9.156;2023-05-14T05:42:28;10.70;;;8.90;;
553;SDS011;59;48.778;9.156;2023-05-14T05:44:54;10.40;;;8.30;;
553;SDS011;59;48.778;9.156;2023-05-14T05:47:20;12.70;;;9.13;;
553;SDS011;59;48.778;9.156;2023-05-14T05:49:45;11.40;;;9.53;;
553;SDS011;59;48.778;9.156;2023-05-14T05:52:11;10.97;;;8.80;;
553;SDS011;59;48.778;9.156;2023-05-14T05:54:37;10.90;;;8.17;;
553;SDS011;59;48.778;9.156;2023-05-14T05:57:04;11.00;;;9.50;;
553;SDS011;59;48.778;9.156;2023-05-14T05:59:29;12.33;;;9.03;;
553;SDS011;59;48.778;9.156;2023-05-14T06:01:55;10.87;;;8.20;;
553;SDS011;59;48.778;9.156;2023-05-14T06:04:21;10.70;;;9.20;;
553;SDS011;59;48.778;9.156;2023-05-14T06:06:46;10.63;;;8.57;;
553;SDS011;59;48.778;9.156;2023-05-14T06:09:12;12.80;;;10.10;;
553;SDS011;59;48.778;9.156;2023-05-14T06:11:37;11.60;;;9.40;;
553;SDS011;59;48.778;9.156;2023-05-14T06:14:03;8.90;;;8.20;;
553;SDS011;59;48.778;9.156;2023-05-14T06:16:29;10.50;;;8.23;;
553;SDS011;59;48.778;9.156;2023-05-14T06:18:55;10.37;;;8.40;;
553;SDS011;59;48.778;9.156;2023-05-14T06:21:20;10.93;;;8.83;;
553;SDS011;59;48.778;9.156;2023-05-14T06:23:46;11.37;;;8.67;;
553;SDS011;59;48.778;9.156;2023-05-14T06:26:12;12.07;;;8.53;;
553;SDS011;59;48.778;9.156;2023-05-14T06:28:37;11.10;;;9.00;;
553;SDS011;59;48.778;9.156;2023-05-14T06:31:03;10.13;;;8.20;;
553;SDS011;59;48.778;9.156;2023-05-14T06:33:29;12.07;;;9.47;;
553;SDS011;59;48.778;9.156;2023-05-14T06:36:04;10.17;;;7.57;;
553;SDS011;59;48.778;9.156;2023-05-14T06:38:30;10.07;;;8.53;;
553;SDS011;59;48.778;9.156;2023-05-14T06:40:56;9.70;;;8.30;;
553;SDS011;59;48.778;9.156;2023-05-14T06:43:22;9.27;;;7.43;;
553;SDS011;59;48.778;9.156;2023-05-14T06:45:48;9.33;;;8.00;;
553;SDS011;59;48.778;9.156;2023-05-14T06:48:17;10.83;;;8.23;;
553;SDS011;59;48.778;9.156;2023-05-14T06:50:43;10.30;;;8.33;;
553;SDS011;59;48.778;9.156;2023-05-14T06:53:09;9.80;;;7.90;;
553;SDS011;59;48.778;9.156;2023-05-14T06:55:35;10.50;;;8.80;;
553;SDS011;59;48.778;9.156;2023-05-14T06:58:01;9.60;;;8.37;;
553;SDS011;59;48.778;9.156;2023-05-14T07:00:27;9.07;;;7.90;;
553;SDS011;59;48.778;9.156;2023-05-14T07:02:52;11.63;;;8.67;;
553;SDS011;59;48.778;9.156;2023-05-14T07:05:18;9.00;;;8.00;;
553;SDS011;59;48.778;9.156;2023-05-14T07:07:43;10.53;;;8.50;;
553;SDS011;59;48.778;9.156;2023-05-14T07:10:09;9.33;;;8.17;;
553;SDS011;59;48.778;9.156;2023-05-14T07:12:35;11.23;;;8.90;;
553;SDS011;59;48.778;9.156;2023-05-14T07:15:01;11.00;;;9.23;;
553;SDS011;59;48.778;9.156;2023-05-14T07:17:27;8.30;;;7.90;;
553;SDS011;59;48.778;9.156;2023-05-14T07:19:52;10.33;;;8.40;;
553;SDS011;59;48.778;9.156;2023-05-14T07:22:20;9.70;;;7.83;;
553;SDS011;59;48.778;9.156;2023-05-14T07:24:46;10.30;;;8.43;;
553;SDS011;59;48.778;9.156;2023-05-14T07:27:12;8.93;;;7.50;;
553;SDS011;59;48.778;9.156;2023-05-14T07:29:37;10.50;;;7.97;;
553;SDS011;59;48.778;9.156;2023-05-14T07:32:03;10.07;;;8.03;;
553;SDS011;59;48.778;9.156;2023-05-14T07:34:29;12.93;;;9.43;;
553;SDS011;59;48.778;9.156;2023-05-14T07:36:54;8.73;;;7.70;;
553;SDS011;59;48.778;9.156;2023-05-14T07:39:20;12.53;;;9.13;;
553;SDS011;59;48.778;9.156;2023-05-14T07:41:46;9.90;;;8.00;;
553;SDS011;59;48.778;9.156;2023-05-14T07:44:12;11.33;;;9.20;;
553;SDS011;59;48.778;9.156;2023-05-14T07:46:37;12.77;;;9.87;;
553;SDS011;59;48.778;9.156;2023-05-14T07:49:03;11.20;;;8.77;;
553;SDS011;59;48.778;9.156;2023-05-14T07:51:29;10.87;;;8.77;;
553;SDS011;59;48.778;9.156;2023-05-14T07:53:57;9.30;;;8.30;;
553;SDS011;59;48.778;9.156;2023-05-14T07:56:23;11.40;;;8.90;;
553;SDS011;59;48.778;9.156;2023-05-14T07:58:49;11.30;;;9.10;;
553;SDS011;59;48.778;9.156;2023-05-14T08:01:15;10.60;;;8.87;;
553;SDS011;59;48.778;9.156;2023-05-14T08:03:41;9.87;;;8.10;;
553;SDS011;59;48.778;9.156;2023-05-14T08:06:07;9.23;;;7.70;;
553;SDS011;59;48.778;9.156;2023-05-14T08:08:32;11.87;;;9.63;;
553;SDS011;59;48.778;9.156;2023-05-14T08:10:58;9.67;;;7.90;;
553;SDS011;59;48.778;9.156;2023-05-14T08:13:24;8.20;;;7.03;;
553;SDS011;59;48.778;9.156;2023-05-14T08:15:50;8.93;;;7.30;;
553;SDS011;59;48.778;9.156;2023-05-14T08:18:16;12.63;;;8.87;;
553;SDS011;59;48.778;9.156;2023-05-14T08:20:42;10.87;;;9.70;;
553;SDS011;59;48.778;9.156;2023-05-14T08:23:07;11.43;;;9.10;;
553;SDS011;59;48.778;9.156;2023-05-14T08:25:33;10.27;;;8.00;;
553;SDS011;59;48.778;9.156;2023-05-14T08:27:59;8.70;;;7.70;;
553;SDS011;59;48.778;9.156;2023-05-14T08:30:25;12.73;;;9.10;;
553;SDS011;59;48.778;9.156;2023-05-14T08:32:51;17.13;;;13.17;;
553;SDS011;59;48.778;9.156;2023-05-14T08:35:17;35.37;;;26.87;;
553;SDS011;59;48.778;9.156;2023-05-14T08:37:43;41.80;;;29.87;;
553;SDS011;59;48.778;9.156;2023-05-14T08:40:09;26.33;;;19.60;;
553;SDS011;59;48.778;9.156;2023-05-14T08:42:35;18.67;;;13.67;;
553;SDS011;59;48.778;9.156;2023-05-14T08:45:05;16.93;;;11.20;;
553;SDS011;59;48.778;9.156;2023-05-14T08:47:52;13.80;;;10.67;;
553;SDS011;59;48.778;9.156;2023-05-14T08:50:19;11.50;;;9.50;;
553;SDS011;59;48.778;9.156;2023-05-14T08:52:46;12.23;;;10.87;;
553;SDS011;59;48.778;9.156;2023-05-14T08:55:12;12.07;;;10.40;;
553;SDS011;59;48.778;9.156;2023-05-14T08:57:38;15.77;;;10.20;;
553;SDS011;59;48.778;9.156;2023-05-14T09:00:04;24.17;;;16.67;;
553;SDS011;59;48.778;9.156;2023-05-14T09:02:35;24.43;;;17.63;;
553;SDS011;59;48.778;9.156;2023-05-14T09:05:01;20.60;;;15.83;;
553;SDS011;59;48.778;9.156;2023-05-14T09:07:27;15.03;;;11.80;;
553;SDS011;59;48.778;9.156;2023-05-14T09:09:53;14.60;;;11.27;;
553;SDS011;59;48.778;9.156;2023-05-14T09:12:19;14.17;;;10.80;;
553;SDS011;59;48.778;9.156;2023-05-14T09:14:46;13.20;;;10.77;;
553;SDS011;59;48.778;9.156;2023-05-14T09:17:12;13.30;;;10.97;;
553;SDS011;59;48.778;9.156;2023-05-14T09:19:39;12.43;;;9.87;;
553;SDS011;59;48.778;9.156;2023-05-14T09:22:07;12.30;;;10.00;;
553;SDS011;59;48.778;9.156;2023-05-14T09:24:36;14.30;;;11.83;;
553;SDS011;59;48.778;9.156;2023-05-14T09:27:05;12.73;;;10.40;;
553;SDS011;59;48.778;9.156;2023-05-14T09:29:32;12.67;;;9.70;;
553;SDS011;59;48.778;9.156;2023-05-14T09:31:58;10.33;;;8.33;;
553;SDS011;59;48.778;9.156;2023-05-14T09:34:27;9.27;;;8.10;;
553;SDS011;59;48.778;9.156;2023-05-14T09:36:58;9.37;;;8.20;;
553;SDS011;59;48.778;9.156;2023-05-14T09:39:28;9.57;;;7.67;;
553;SDS011;59;48.778;9.156;2023-05-14T09:41:54;8.93;;;7.30;;
553;SDS011;59;48.778;9.156;2023-05-14T09:44:20;10.53;;;7.80;;
553;SDS011;59;48.778;9.156;2023-05-14T09:46:47;9.57;;;8.23;;
553;SDS011;59;48.778;9.156;2023-05-14T09:49:13;11.67;;;9.20;;
553;SDS011;59;48.778;9.156;2023-05-14T09:51:39;9.87;;;8.03;;
553;SDS011;59;48.778;9.156;2023-05-14T09:54:05;12.30;;;7.90;;
553;SDS011;59;48.778;9.156;2023-05-14T09:56:31;10.07;;;8.40;;
553;SDS011;59;48.778;9.156;2023-05-14T09:58:57;9.73;;;8.00;;
553;SDS011;59;48.778;9.156;2023-05-14T10:01:23;12.17;;;7.23;;
553;SDS011;59;48.778;9.156;2023-05-14T10:03:49;9.57;;;7.90;;
553;SDS011;59;48.778;9.156;2023-05-14T10:06:18;8.33;;;7.20;;
553;SDS011;59;48.778;9.156;2023-05-14T10:08:47;7.80;;;6.57;;
553;SDS011;59;48.778;9.156;2023-05-14T10:11:14;7.30;;;6.80;;
553;SDS011;59;48.778;9.156;2023-05-14T10:13:48;9.00;;;6.17;;
553;SDS011;59;48.778;9.156;2023-05-14T10:16:23;8.80;;;6.77;;
553;SDS011;59;48.778;9.156;2023-05-14T10:19:02;6.97;;;6.33;;
553;SDS011;59;48.778;9.156;2023-05-14T10:21:33;10.17;;;7.80;;
553;SDS011;59;48.778;9.156;2023-05-14T10:24:01;9.50;;;7.53;;
553;SDS011;59;48.778;9.156;2023-05-14T10:26:28;9.30;;;8.00;;
553;SDS011;59;48.778;9.156;2023-05-14T10:28:55;19.47;;;14.67;;
553;SDS011;59;48.778;9.156;2023-05-14T10:32:06;22.83;;;17.47;;
553;SDS011;59;48.778;9.156;2023-05-14T10:36:58;14.13;;;10.63;;
553;SDS011;59;48.778;9.156;2023-05-14T10:39:43;11.70;;;9.07;;
553;SDS011;59;48.778;9.156;2023-05-14T10:44:46;12.10;;;9.70;;
553;SDS011;59;48.778;9.156;2023-05-14T10:47:13;11.20;;;9.27;;
553;SDS011;59;48.778;9.156;2023-05-14T10:49:41;11.73;;;9.43;;
553;SDS011;59;48.778;9.156;2023-05-14T10:52:07;10.03;;;8.77;;
553;SDS011;59;48.778;9.156;2023-05-14T10:54:36;9.53;;;8.03;;
553;SDS011;59;48.778;9.156;2023-05-14T10:57:02;8.50;;;7.20;;
553;SDS011;59;48.778;9.156;2023-05-14T10:59:28;9.10;;;7.20;;
553;SDS011;59;48.778;9.156;2023-05-14T11:01:57;8.80;;;7.00;;
553;SDS011;59;48.778;9.156;2023-05-14T11:04:23;7.17;;;6.63;;
553;SDS011;59;48.778;9.156;2023-05-14T11:06:49;7.87;;;6.47;;
553;SDS011;59;48.778;9.156;2023-05-14T11:09:16;8.67;;;7.10;;
553;SDS011;59;48.778;9.156;2023-05-14T11:11:42;10.67;;;7.77;;
553;SDS011;59;48.778;9.156;2023-05-14T11:14:08;9.03;;;7.60;;
553;SDS011;59;48.778;9.156;2023-05-14T11:16:34;9.17;;;7.13;;
553;SDS011;59;48.778;9.156;2023-05-14T11:19:02;9.50;;;7.70;;
553;SDS011;59;48.778;9.156;2023-05-14T11:21:28;9.23;;;8.20;;
553;SDS011;59;48.778;9.156;2023-05-14T11:23:55;9.10;;;8.00;;
553;SDS011;59;48.778;9.156;2023-05-14T11:26:22;10.37;;;8.70;;
553;SDS011;59;48.778;9.156;2023-05-14T11:28:48;8.77;;;7.00;;
553;SDS011;59;48.778;9.156;2023-05-14T11:31:13;8.07;;;7.20;;
553;SDS011;59;48.778;9.156;2023-05-14T11:33:39;8.23;;;6.90;;
553;SDS011;59;48.778;9.156;2023-05-14T11:36:06;6.77;;;6.40;;
553;SDS011;59;48.778;9.156;2023-05-14T11:38:34;7.23;;;6.70;;
553;SDS011;59;48.778;9.156;2023-05-14T11:41:12;8.37;;;7.17;;
553;SDS011;59;48.778;9.156;2023-05-14T11:43:39;7.90;;;6.70;;
553;SDS011;59;48.778;9.156;2023-05-14T11:46:05;8.80;;;6.90;;
553;SDS011;59;48.778;9.156;2023-05-14T11:48:32;12.67;;;11.00;;
553;SDS011;59;48.778;9.156;2023-05-14T11:50:58;14.57;;;11.67;;
553;SDS011;59;48.778;9.156;2023-05-14T11:53:24;12.27;;;10.30;;
553;SDS011;59;48.778;9.156;2023-05-14T11:55:51;9.77;;;7.33;;
553;SDS011;59;48.778;9.156;2023-05-14T11:58:24;8.53;;;7.13;;
553;SDS011;59;48.778;9.156;2023-05-14T12:00:51;8.43;;;6.80;;
553;SDS011;59;48.778;9.156;2023-05-14T12:03:17;10.50;;;8.73;;
553;SDS011;59;48.778;9.156;2023-05-14T12:08:23;7.70;;;5.90;;
553;SDS011;59;48.778;9.156;2023-05-14T12:10:51;6.90;;;6.40;;
553;SDS011;59;48.778;9.156;2023-05-14T12:13:17;7.53;;;6.87;;
553;SDS011;59;48.778;9.156;2023-05-14T12:15:45;7.60;;;6.87;;
553;SDS011;59;48.778;9.156;2023-05-14T12:18:21;7.23;;;5.97;;
553;SDS011;59;48.778;9.156;2023-05-14T12:20:48;7.93;;;6.50;;
553;SDS011;59;48.778;9.156;2023-05-14T12:23:15;7.47;;;6.93;;
553;SDS011;59;48.778;9.156;2023-05-14T12:25:48;6.07;;;5.77;;
553;SDS011;59;48.778;9.156;2023-05-14T12:28:15;9.93;;;7.30;;
553;SDS011;59;48.778;9.156;2023-05-14T12:30:41;8.10;;;6.90;;
553;SDS011;59;48.778;9.156;2023-05-14T12:33:07;8.77;;;7.47;;
553;SDS011;59;48.778;9.156;2023-05-14T12:35:33;8.73;;;6.47;;
553;SDS011;59;48.778;9.156;2023-05-14T12:38:01;8.60;;;7.10;;
553;SDS011;59;48.778;9.156;2023-05-14T12:40:27;7.60;;;5.80;;
553;SDS011;59;48.778;9.156;2023-05-14T12:42:53;7.47;;;6.80;;
553;SDS011;59;48.778;9.156;2023-05-14T12:45:18;6.70;;;5.67;;
553;SDS011;59;48.778;9.156;2023-05-14T12:47:44;7.00;;;6.10;;
553;SDS011;59;48.778;9.156;2023-05-14T12:50:10;6.00;;;5.30;;
553;SDS011;59;48.778;9.156;2023-05-14T12:52:36;7.40;;;5.90;;
553;SDS011;59;48.778;9.156;2023-05-14T12:55:01;7.00;;;6.07;;
553;SDS011;59;48.778;9.156;2023-05-14T12:57:27;5.47;;;5.23;;
553;SDS011;59;48.778;9.156;2023-05-14T12:59:55;5.80;;;5.10;;
553;SDS011;59;48.778;9.156;2023-05-14T13:02:21;5.37;;;5.10;;
553;SDS011;59;48.778;9.156;2023-05-14T13:04:47;6.33;;;5.37;;
553;SDS011;59;48.778;9.156;2023-05-14T13:07:12;6.60;;;5.10;;
553;SDS011;59;48.778;9.156;2023-05-14T13:09:38;5.87;;;5.43;;
553;SDS011;59;48.778;9.156;2023-05-14T13:12:04;6.47;;;5.33;;
553;SDS011;59;48.778;9.156;2023-05-14T13:14:30;6.97;;;5.30;;
553;SDS011;59;48.778;9.156;2023-05-14T13:16:55;5.53;;;4.93;;
553;SDS011;59;48.778;9.156;2023-05-14T13:19:21;5.40;;;5.10;;
553;SDS011;59;48.778;9.156;2023-05-14T13:21:47;6.23;;;5.77;;
553;SDS011;59;48.778;9.156;2023-05-14T13:24:12;6.53;;;5.77;;
553;SDS011;59;48.778;9.156;2023-05-14T13:26:38;6.80;;;5.03;;
553;SDS011;59;48.778;9.156;2023-05-14T13:29:04;7.40;;;5.60;;
553;SDS011;59;48.778;9.156;2023-05-14T13:31:29;7.90;;;5.67;;
553;SDS011;59;48.778;9.156;2023-05-14T13:33:55;6.53;;;5.37;;
553;SDS011;59;48.778;9.156;2023-05-14T13:36:23;6.80;;;5.93;;
553;SDS011;59;48.778;9.156;2023-05-14T13:38:48;7.17;;;6.00;;
553;SDS011;59;48.778;9.156;2023-05-14T13:41:14;7.23;;;6.20;;
553;SDS011;59;48.778;9.156;2023-05-14T13:43:40;6.13;;;5.83;;
553;SDS011;59;48.778;9.156;2023-05-14T13:46:05;8.23;;;6.10;;
553;SDS011;59;48.778;9.156;2023-05-14T13:48:31;5.67;;;5.37;;
553;SDS011;59;48.778;9.156;2023-05-14T13:50:57;7.33;;;6.00;;
553;SDS011;59;48.778;9.156;2023-05-14T13:53:23;6.13;;;5.47;;
553;SDS011;59;48.778;9.156;2023-05-14T13:55:49;6.53;;;5.70;;
553;SDS011;59;48.778;9.156;2023-05-14T13:58:20;8.23;;;5.70;;
553;SDS011;59;48.778;9.156;2023-05-14T14:00:47;14.73;;;10.33;;
553;SDS011;59;48.778;9.156;2023-05-14T14:03:13;7.10;;;5.97;;
553;SDS011;59;48.778;9.156;2023-05-14T14:05:38;6.87;;;6.00;;
553;SDS011;59;48.778;9.156;2023-05-14T14:08:04;5.77;;;5.30;;
553;SDS011;59;48.778;9.156;2023-05-14T14:10:30;6.40;;;5.60;;
553;SDS011;59;48.778;9.156;2023-05-14T14:12:55;6.80;;;5.70;;
553;SDS011;59;48.778;9.156;2023-05-14T14:15:21;6.50;;;5.63;;
553;SDS011;59;48.778;9.156;2023-05-14T14:17:47;5.90;;;5.27;;
553;SDS011;59;48.778;9.156;2023-05-14T14:20:13;6.57;;;6.00;;
553;SDS011;59;48.778;9.156;2023-05-14T14:22:39;5.80;;;5.00;;
553;SDS011;59;48.778;9.156;2023-05-14T14:25:05;6.07;;;5.10;;
553;SDS011;59;48.778;9.156;2023-05-14T14:27:32;4.77;;;4.47;;
553;SDS011;59;48.778;9.156;2023-05-14T14:30:02;5.17;;;4.87;;
553;SDS011;59;48.778;9.156;2023-05-14T14:32:32;4.33;;;4.03;;
553;SDS011;59;48.778;9.156;2023-05-14T14:34:57;5.50;;;4.80;;
553;SDS011;59;48.778;9.156;2023-05-14T14:37:23;5.20;;;4.67;;
553;SDS011;59;48.778;9.156;2023-05-14T14:39:49;6.20;;;5.47;;
553;SDS011;59;48.778;9.156;2023-05-14T14:42:14;12.67;;;9.03;;
553;SDS011;59;48.778;9.156;2023-05-14T14:44:40;10.77;;;8.63;;
553;SDS011;59;48.778;9.156;2023-05-14T14:47:07;6.33;;;5.83;;
553;SDS011;59;48.778;9.156;2023-05-14T14:49:33;6.80;;;5.63;;
553;SDS011;59;48.778;9.156;2023-05-14T14:52:00;8.10;;;4.83;;
553;SDS011;59;48.778;9.156;2023-05-14T14:54:26;5.20;;;4.80;;
553;SDS011;59;48.778;9.156;2023-05-14T14:56:51;4.83;;;4.60;;
553;SDS011;59;48.778;9.156;2023-05-14T14:59:17;5.43;;;4.57;;
553;SDS011;59;48.778;9.156;2023-05-14T15:01:43;5.50;;;4.17;;
553;SDS011;59;48.778;9.156;2023-05-14T15:04:08;4.80;;;4.40;;
553;SDS011;59;48.778;9.156;2023-05-14T15:06:34;4.47;;;4.17;;
553;SDS011;59;48.778;9.156;2023-05-14T15:09:00;5.03;;;4.60;;
553;SDS011;59;48.778;9.156;2023-05-14T15:11:26;4.40;;;3.97;;
553;SDS011;59;48.778;9.156;2023-05-14T15:13:52;4.00;;;3.77;;
553;SDS011;59;48.778;9.156;2023-05-14T15:16:18;5.07;;;4.80;;
553;SDS011;59;48.778;9.156;2023-05-14T15:18:44;4.80;;;4.50;;
553;SDS011;59;48.778;9.156;2023-05-14T15:21:11;5.80;;;5.10;;
553;SDS011;59;48.778;9.156;2023-05-14T15:23:36;4.83;;;4.53;;
553;SDS011;59;48.778;9.156;2023-05-14T15:26:02;5.10;;;4.70;;
553;SDS011;59;48.778;9.156;2023-05-14T15:28:28;4.70;;;4.27;;
553;SDS011;59;48.778;9.156;2023-05-14T15:30:54;6.80;;;4.87;;
553;SDS011;59;48.778;9.156;2023-05-14T15:33:20;5.17;;;4.57;;
553;SDS011;59;48.778;9.156;2023-05-14T15:35:45;5.00;;;4.47;;
553;SDS011;59;48.778;9.156;2023-05-14T15:38:11;4.90;;;4.10;;
553;SDS011;59;48.778;9.156;2023-05-14T15:40:37;5.07;;;4.50;;
553;SDS011;59;48.778;9.156;2023-05-14T15:43:02;5.20;;;4.07;;
553;SDS011;59;48.778;9.156;2023-05-14T15:45:28;5.70;;;4.73;;
553;SDS011;59;48.778;9.156;2023-05-14T15:47:54;6.30;;;5.00;;
553;SDS011;59;48.778;9.156;2023-05-14T15:50:20;5.17;;;4.30;;
553;SDS011;59;48.778;9.156;2023-05-14T15:52:46;4.87;;;4.60;;
553;SDS011;59;48.778;9.156;2023-05-14T15:55:12;5.17;;;4.77;;
553;SDS011;59;48.778;9.156;2023-05-14T15:57:38;5.90;;;4.90;;
553;SDS011;59;48.778;9.156;2023-05-14T16:00:04;5.33;;;5.00;;
553;SDS011;59;48.778;9.156;2023-05-14T16:02:34;5.33;;;5.03;;
553;SDS011;59;48.778;9.156;2023-05-14T16:05:00;6.50;;;4.90;;
553;SDS011;59;48.778;9.156;2023-05-14T16:07:26;7.10;;;5.63;;
553;SDS011;59;48.778;9.156;2023-05-14T16:09:52;5.80;;;5.40;;
553;SDS011;59;48.778;9.156;2023-05-14T16:12:17;7.40;;;5.83;;
553;SDS011;59;48.778;9.156;2023-05-14T16:14:43;5.73;;;5.10;;
553;SDS011;59;48.778;9.156;2023-05-14T16:17:09;5.80;;;5.37;;
553;SDS011;59;48.778;9.156;2023-05-14T16:19:35;6.40;;;5.70;;
553;SDS011;59;48.778;9.156;2023-05-14T16:22:02;6.43;;;5.70;;